Time;durP1;ratioP1;P1;durP2;ratioP2;P2;SDS_P1;SDS_P2;PMS_P1;PMS_P2;Temp;Humidity;BMP_temperature;BMP_pressure;BME280_temperature;BME280_humidity;BME280_pressure;Samples;Min_cycle;Max_cycle;Signal;HPM_P1;HPM_P2
2022/11/18 00:00:51;;;;;;;13.43;10.25;;;8.70;83.00;;;;;;5093228;28;20125;-74
2022/11/18 00:03:17;;;;;;;11.77;10.48;;;8.90;83.10;;;;;;5076646;28;20032;-74
2022/11/18 00:05:51;;;;;;;13.23;10.65;;;8.60;83.00;;;;;;5093195;28;20059;-74
2022/11/18 00:08:17;;;;;;;12.65;11.02;;;8.60;83.10;;;;;;5099430;28;20039;-74
2022/11/18 00:10:42;;;;;;;12.43;11.18;;;8.60;83.10;;;;;;5088402;28;20496;-74
2022/11/18 00:16:03;;;;;;;14.27;10.80;;;8.50;83.30;;;;;;5093148;28;20042;-74
2022/11/18 00:18:29;;;;;;;12.98;11.13;;;8.50;83.30;;;;;;5077739;28;20407;-74
2022/11/18 00:20:59;;;;;;;12.57;11.00;;;8.50;83.40;;;;;;5093016;28;20032;-74
2022/11/18 00:23:24;;;;;;;16.75;11.52;;;8.50;83.40;;;;;;5093057;28;20044;-74
2022/11/18 00:25:50;;;;;;;13.65;11.57;;;8.50;83.40;;;;;;5093421;28;20047;-74
2022/11/18 00:28:15;;;;;;;14.82;11.07;;;8.40;83.40;;;;;;5059180;28;20048;-74
2022/11/18 00:30:41;;;;;;;13.02;10.57;;;8.40;83.50;;;;;;5076041;28;20028;-74
2022/11/18 00:33:07;;;;;;;12.35;11.05;;;8.40;83.60;;;;;;5076146;28;20039;-74
2022/11/18 00:35:32;;;;;;;13.18;10.82;;;8.40;83.60;;;;;;5076374;28;20032;-74
2022/11/18 00:37:58;;;;;;;15.65;11.35;;;8.30;83.70;;;;;;5093173;28;20089;-74
2022/11/18 00:40:24;;;;;;;14.18;10.25;;;8.40;83.70;;;;;;5076155;28;20039;-73
2022/11/18 00:42:50;;;;;;;13.82;11.05;;;8.40;83.70;;;;;;5092794;28;20117;-74
2022/11/18 00:45:17;;;;;;;13.73;10.77;;;8.40;84.10;;;;;;5091883;28;20059;-73
2022/11/18 00:47:42;;;;;;;14.98;11.48;;;8.30;83.70;;;;;;5092578;28;20044;-74
2022/11/18 00:50:08;;;;;;;12.95;11.20;;;8.30;83.70;;;;;;5092467;28;20155;-74
2022/11/18 00:52:34;;;;;;;12.50;11.10;;;8.30;83.70;;;;;;5075288;28;20111;-74
2022/11/18 00:55:00;;;;;;;13.80;11.40;;;8.30;83.70;;;;;;5092459;28;20134;-75
2022/11/18 00:57:25;;;;;;;13.10;11.25;;;8.30;83.80;;;;;;5092068;28;20116;-74
2022/11/18 00:59:51;;;;;;;14.18;11.23;;;8.20;83.80;;;;;;5075496;28;20377;-74
2022/11/18 01:02:17;;;;;;;18.75;13.68;;;8.20;83.80;;;;;;5092022;28;20380;-74
2022/11/18 01:04:42;;;;;;;15.40;13.45;;;8.20;83.80;;;;;;5075660;28;20062;-74
2022/11/18 01:07:08;;;;;;;17.55;13.82;;;8.20;83.80;;;;;;5075614;28;20467;-74
2022/11/18 01:09:34;;;;;;;18.88;15.27;;;8.10;83.80;;;;;;5092415;28;20032;-74
2022/11/18 01:14:43;;;;;;;17.80;15.55;;;8.10;83.90;;;;;;5092326;28;20039;-74
2022/11/18 01:17:09;;;;;;;20.60;16.35;;;8.10;84.00;;;;;;5075365;28;20040;-74
2022/11/18 01:19:35;;;;;;;22.35;18.38;;;8.10;84.00;;;;;;5092191;28;20038;-74
2022/11/18 01:22:02;;;;;;;20.95;17.50;;;8.00;84.00;;;;;;5075420;28;20040;-74
2022/11/18 01:24:32;;;;;;;25.17;19.20;;;8.00;84.10;;;;;;5075521;28;20044;-74
2022/11/18 01:26:58;;;;;;;26.80;19.23;;;8.00;84.20;;;;;;5091882;28;20040;-74
2022/11/18 01:29:24;;;;;;;28.30;20.30;;;7.90;84.30;;;;;;5092060;28;20082;-73
2022/11/18 01:31:49;;;;;;;27.40;20.10;;;8.00;84.40;;;;;;5074595;28;20069;-74
2022/11/18 01:34:15;;;;;;;28.67;21.67;;;7.90;84.40;;;;;;5075288;28;20067;-74
2022/11/18 01:36:40;;;;;;;29.25;22.20;;;7.90;84.40;;;;;;5074938;28;20024;-74
2022/11/18 01:39:06;;;;;;;29.60;21.80;;;7.90;84.50;;;;;;5040440;28;20044;-74
2022/11/18 01:41:32;;;;;;;35.10;23.73;;;7.90;84.60;;;;;;5091781;28;20518;-74
2022/11/18 01:44:00;;;;;;;35.15;23.10;;;7.90;84.70;;;;;;5074819;28;20106;-73
2022/11/18 01:46:31;;;;;;;38.67;26.15;;;7.90;84.80;;;;;;5091824;28;20100;-74
2022/11/18 01:49:17;;;;;;;37.47;25.25;;;7.90;84.90;;;;;;5086019;28;20040;-74
2022/11/18 01:51:52;;;;;;;40.67;26.77;;;7.90;85.00;;;;;;5092031;28;20040;-74
2022/11/18 01:54:33;;;;;;;43.70;25.58;;;7.90;85.10;;;;;;5081088;28;20036;-73
2022/11/18 01:57:04;;;;;;;38.95;25.70;;;7.90;85.20;;;;;;5083791;28;20128;-73
2022/11/18 01:59:33;;;;;;;40.78;26.52;;;7.90;85.30;;;;;;5091685;28;20399;-74
2022/11/18 02:02:01;;;;;;;44.08;27.23;;;7.90;85.30;;;;;;5106655;28;20032;-74
2022/11/18 02:04:27;;;;;;;47.72;28.67;;;7.90;85.40;;;;;;5074366;28;20035;-73
2022/11/18 02:06:54;;;;;;;43.30;27.48;;;8.00;85.60;;;;;;5057457;28;20403;-74
2022/11/18 02:09:20;;;;;;;45.70;27.48;;;8.00;85.60;;;;;;5091456;28;20067;-73
2022/11/18 02:11:55;;;;;;;44.22;27.73;;;8.20;85.80;;;;;;5091287;28;20028;-74
2022/11/18 02:14:29;;;;;;;48.03;27.70;;;8.00;85.70;;;;;;5075936;28;20032;-74
2022/11/18 02:17:12;;;;;;;41.23;27.07;;;8.00;85.90;;;;;;5091031;28;20115;-73
2022/11/18 02:19:47;;;;;;;42.75;27.10;;;8.00;85.90;;;;;;5091451;28;20379;-74
2022/11/18 02:22:28;;;;;;;44.47;26.85;;;8.10;86.10;;;;;;5074475;28;20442;-73
2022/11/18 02:24:58;;;;;;;47.33;27.70;;;8.00;86.10;;;;;;5091065;28;20476;-73
2022/11/18 02:27:42;;;;;;;47.97;26.33;;;8.10;86.00;;;;;;5091170;28;20062;-71
2022/11/18 02:30:14;;;;;;;43.88;28.55;;;8.00;86.00;;;;;;5074633;28;20369;-71
2022/11/18 02:32:56;;;;;;;50.25;28.83;;;8.10;86.10;;;;;;5091257;28;20036;-71
2022/11/18 02:35:21;;;;;;;48.45;29.00;;;8.10;86.20;;;;;;5091032;28;20036;-71
2022/11/18 02:37:54;;;;;;;57.17;30.40;;;8.10;86.20;;;;;;5091142;28;20047;-71
2022/11/18 02:40:36;;;;;;;52.53;29.80;;;8.10;86.20;;;;;;5091431;28;20098;-71
2022/11/18 02:43:10;;;;;;;57.55;29.98;;;8.10;86.40;;;;;;5104785;28;20044;-71
2022/11/18 02:45:41;;;;;;;55.60;30.83;;;8.10;86.30;;;;;;5103574;28;20116;-71
2022/11/18 02:48:09;;;;;;;53.53;30.30;;;8.10;86.30;;;;;;5090583;28;20377;-74
2022/11/18 02:50:36;;;;;;;51.40;29.27;;;8.10;86.40;;;;;;5091275;28;20518;-74
2022/11/18 02:53:04;;;;;;;57.47;31.73;;;8.10;86.40;;;;;;5090537;28;20032;-71
2022/11/18 02:55:33;;;;;;;49.65;30.08;;;8.10;86.50;;;;;;5086754;28;20096;-71
2022/11/18 02:58:03;;;;;;;53.03;30.63;;;8.10;86.50;;;;;;5090658;28;20608;-72
2022/11/18 03:00:30;;;;;;;53.53;31.33;;;8.20;86.60;;;;;;5074439;28;20399;-72
2022/11/18 03:02:55;;;;;;;52.38;30.17;;;8.20;86.60;;;;;;5090928;28;20043;-72
2022/11/18 03:05:59;;;;;;;50.30;29.35;;;8.20;86.60;;;;;;5090698;28;20036;-71
2022/11/18 03:08:31;;;;;;;52.20;30.10;;;8.20;86.70;;;;;;5089848;28;20048;-71
2022/11/18 03:11:13;;;;;;;56.45;31.80;;;8.20;86.70;;;;;;5094565;28;20547;-71
2022/11/18 03:14:02;;;;;;;56.38;31.27;;;8.20;86.80;;;;;;5094256;28;20494;-72
2022/11/18 03:16:50;;;;;;;49.67;29.17;;;8.20;86.80;;;;;;5077567;28;20395;-71
2022/11/18 03:19:23;;;;;;;52.08;30.40;;;8.20;86.80;;;;;;5094117;28;20109;-72
2022/11/18 03:22:01;;;;;;;50.03;28.63;;;8.20;86.70;;;;;;5094696;28;20036;-71
2022/11/18 03:24:31;;;;;;;48.20;28.90;;;8.20;86.80;;;;;;5093717;28;20048;-71
2022/11/18 03:27:15;;;;;;;53.20;30.00;;;8.20;86.70;;;;;;5094241;28;20055;-71
2022/11/18 03:29:47;;;;;;;46.85;29.02;;;8.20;86.80;;;;;;5094331;28;20063;-72
2022/11/18 03:32:17;;;;;;;48.88;29.77;;;8.40;86.80;;;;;;5077916;28;20059;-74
2022/11/18 03:34:48;;;;;;;45.83;27.58;;;8.20;86.70;;;;;;5094171;28;20036;-72
2022/11/18 03:37:16;;;;;;;42.63;28.13;;;8.30;86.70;;;;;;5094283;28;20115;-72
2022/11/18 03:39:50;;;;;;;45.40;29.70;;;8.30;86.70;;;;;;5092045;28;20036;-72
2022/11/18 03:42:28;;;;;;;48.95;29.73;;;8.30;86.60;;;;;;5093828;28;20471;-72
2022/11/18 03:44:59;;;;;;;46.55;29.38;;;8.30;86.70;;;;;;5079262;28;20033;-72
2022/11/18 03:47:31;;;;;;;43.67;28.27;;;8.20;86.50;;;;;;5090525;28;20051;-72
2022/11/18 03:50:03;;;;;;;43.15;26.70;;;8.20;86.50;;;;;;5094191;28;20036;-72
2022/11/18 03:52:32;;;;;;;39.72;27.73;;;8.20;86.50;;;;;;5094222;28;20403;-72
2022/11/18 03:55:05;;;;;;;41.53;27.15;;;8.20;86.50;;;;;;5093650;28;20040;-71
2022/11/18 03:57:48;;;;;;;44.85;27.75;;;8.20;86.60;;;;;;5076579;28;20052;-72
2022/11/18 04:00:15;;;;;;;37.00;27.75;;;8.20;86.50;;;;;;5077282;28;20043;-72
2022/11/18 04:02:42;;;;;;;46.00;28.00;;;8.20;86.40;;;;;;5076786;28;20040;-72
2022/11/18 04:05:11;;;;;;;38.17;26.00;;;8.20;86.40;;;;;;5086166;28;20040;-72
2022/11/18 04:08:01;;;;;;;42.55;27.45;;;8.20;86.30;;;;;;5090474;28;20505;-72
2022/11/18 04:10:51;;;;;;;43.90;26.88;;;8.20;86.30;;;;;;5093904;28;20032;-72
2022/11/18 04:13:29;;;;;;;38.95;26.98;;;8.20;86.40;;;;;;5094118;28;20055;-72
2022/11/18 04:15:55;;;;;;;38.33;26.40;;;8.20;86.40;;;;;;5093370;28;20039;-72
2022/11/18 04:18:21;;;;;;;41.13;26.55;;;8.20;86.30;;;;;;5073233;28;20396;-72
2022/11/18 04:20:46;;;;;;;38.85;26.10;;;8.20;86.30;;;;;;5090570;28;20040;-72
2022/11/18 04:23:12;;;;;;;36.15;26.08;;;8.20;86.30;;;;;;5076724;28;20460;-72
2022/11/18 04:25:38;;;;;;;40.22;27.17;;;8.20;86.30;;;;;;5093110;28;20574;-72
2022/11/18 04:28:04;;;;;;;40.17;26.67;;;8.20;86.40;;;;;;5059769;28;20036;-71
2022/11/18 04:30:30;;;;;;;41.95;27.00;;;8.20;86.40;;;;;;5093435;28;20078;-72
2022/11/18 04:32:56;;;;;;;43.63;27.35;;;8.20;86.30;;;;;;5092846;28;20137;-72
2022/11/18 04:35:22;;;;;;;40.40;28.00;;;8.20;86.30;;;;;;5075769;28;20039;-71
2022/11/18 04:37:48;;;;;;;35.60;24.92;;;8.20;86.30;;;;;;5092946;28;20067;-72
2022/11/18 04:40:13;;;;;;;37.83;26.67;;;8.20;86.30;;;;;;5093375;28;20139;-72
2022/11/18 04:42:39;;;;;;;43.60;27.95;;;8.20;86.30;;;;;;5093211;28;20517;-72
2022/11/18 04:45:06;;;;;;;41.15;27.65;;;8.20;86.30;;;;;;5075931;28;20040;-72
2022/11/18 04:47:31;;;;;;;44.03;27.63;;;8.20;86.30;;;;;;5076264;28;20399;-72
2022/11/18 04:49:57;;;;;;;44.75;28.52;;;8.10;86.20;;;;;;5092722;28;20036;-71
2022/11/18 04:52:23;;;;;;;42.22;27.73;;;8.20;86.30;;;;;;5093075;28;20032;-71
2022/11/18 04:54:48;;;;;;;43.53;28.90;;;8.20;86.30;;;;;;5092045;28;20041;-72
2022/11/18 04:57:14;;;;;;;41.50;27.52;;;8.20;86.30;;;;;;5092538;28;20087;-72
2022/11/18 04:59:40;;;;;;;41.53;28.40;;;8.20;86.40;;;;;;5092718;28;20044;-71
2022/11/18 05:02:06;;;;;;;42.05;27.52;;;8.20;86.40;;;;;;5075639;28;20039;-72
2022/11/18 05:04:33;;;;;;;44.47;27.98;;;8.20;86.80;;;;;;5092464;28;20032;-71
2022/11/18 05:07:01;;;;;;;42.55;27.55;;;8.20;86.40;;;;;;5091982;28;20055;-72
2022/11/18 05:09:27;;;;;;;41.05;26.98;;;8.20;86.40;;;;;;5092417;28;20039;-72
2022/11/18 05:14:38;;;;;;;43.35;28.77;;;8.20;86.40;;;;;;5064036;28;20391;-73
2022/11/18 05:17:06;;;;;;;45.10;28.73;;;8.20;86.40;;;;;;5091905;28;20036;-73
2022/11/18 05:19:32;;;;;;;38.80;26.60;;;8.20;86.50;;;;;;5092491;28;20115;-73
2022/11/18 05:21:58;;;;;;;48.35;30.30;;;8.20;86.40;;;;;;5092311;28;20071;-73
2022/11/18 05:24:23;;;;;;;45.75;30.23;;;8.20;86.30;;;;;;5092028;28;20085;-73
2022/11/18 05:26:50;;;;;;;45.58;29.08;;;8.20;86.30;;;;;;5092072;28;20076;-73
2022/11/18 05:29:18;;;;;;;42.13;28.83;;;8.20;86.40;;;;;;5091791;28;20040;-73
2022/11/18 05:31:44;;;;;;;44.47;29.83;;;8.20;86.40;;;;;;5075237;28;20043;-73
2022/11/18 05:34:10;;;;;;;47.50;28.80;;;8.20;86.80;;;;;;5055411;28;20071;-73
2022/11/18 05:36:36;;;;;;;42.03;27.65;;;8.20;86.40;;;;;;5092006;28;20082;-72
2022/11/18 05:39:02;;;;;;;44.97;28.23;;;8.20;86.40;;;;;;5054912;28;20040;-72
2022/11/18 05:44:11;;;;;;;46.78;29.58;;;8.20;86.40;;;;;;5090729;28;20127;-72
2022/11/18 05:46:37;;;;;;;46.35;28.63;;;8.10;86.40;;;;;;5105829;28;20408;-72
2022/11/18 05:49:03;;;;;;;42.13;28.13;;;8.10;86.40;;;;;;5058362;28;20036;-72
2022/11/18 05:51:28;;;;;;;39.90;26.17;;;8.10;86.40;;;;;;5091554;28;20081;-72
2022/11/18 05:53:55;;;;;;;40.42;27.00;;;8.20;86.40;;;;;;5058185;28;20074;-73
2022/11/18 05:56:50;;;;;;;47.30;28.23;;;8.10;86.40;;;;;;5073895;28;20181;-72
2022/11/18 05:59:16;;;;;;;43.25;26.23;;;8.10;86.40;;;;;;5078640;28;20071;-72
2022/11/18 06:01:41;;;;;;;43.40;26.40;;;8.10;86.40;;;;;;5073963;28;20063;-72
2022/11/18 06:04:29;;;;;;;38.28;25.98;;;8.10;86.30;;;;;;5091266;28;20044;-72
2022/11/18 06:07:04;;;;;;;43.22;26.90;;;8.10;86.40;;;;;;5074667;28;20034;-72
2022/11/18 06:09:33;;;;;;;38.85;25.90;;;8.10;86.50;;;;;;5091283;28;20067;-72
2022/11/18 06:12:02;;;;;;;44.58;26.50;;;8.10;86.50;;;;;;5091522;28;20483;-72
2022/11/18 06:14:30;;;;;;;42.05;26.48;;;8.10;86.40;;;;;;5091596;28;20112;-72
2022/11/18 06:17:00;;;;;;;41.03;26.65;;;8.10;86.40;;;;;;5091147;28;20040;-72
2022/11/18 06:19:26;;;;;;;36.05;24.63;;;8.10;86.40;;;;;;5091554;28;20606;-72
2022/11/18 06:21:53;;;;;;;40.38;26.42;;;8.10;86.40;;;;;;5057065;28;20057;-72
2022/11/18 06:24:18;;;;;;;44.17;27.13;;;8.10;86.40;;;;;;5091243;28;20488;-72
2022/11/18 06:26:46;;;;;;;44.03;27.55;;;8.10;86.40;;;;;;5074392;28;20043;-72
2022/11/18 06:29:15;;;;;;;37.72;25.95;;;8.10;86.40;;;;;;5091335;28;20044;-72
2022/11/18 06:31:41;;;;;;;40.25;25.85;;;8.10;86.40;;;;;;5090926;28;20032;-72
2022/11/18 06:34:06;;;;;;;42.63;26.77;;;8.00;86.40;;;;;;5053624;28;20058;-72
2022/11/18 06:36:32;;;;;;;37.22;25.25;;;8.00;86.40;;;;;;5070890;28;20086;-72
2022/11/18 06:39:05;;;;;;;37.80;23.77;;;8.10;86.40;;;;;;5091559;28;20044;-71
2022/11/18 06:41:31;;;;;;;39.65;23.63;;;8.00;86.40;;;;;;5090874;28;20561;-71
2022/11/18 06:43:57;;;;;;;41.33;24.92;;;8.00;86.40;;;;;;5059051;28;20063;-72
2022/11/18 06:49:07;;;;;;;39.70;25.02;;;8.00;86.30;;;;;;5095184;28;20514;-72
2022/11/18 06:51:33;;;;;;;36.85;23.80;;;8.00;86.40;;;;;;5078046;28;20048;-71
2022/11/18 06:53:58;;;;;;;38.38;24.27;;;8.00;86.40;;;;;;5078370;28;20036;-72
2022/11/18 06:56:25;;;;;;;36.78;24.10;;;8.00;86.40;;;;;;5095166;28;20052;-71
2022/11/18 06:58:55;;;;;;;42.72;25.52;;;8.00;86.50;;;;;;5095268;28;20083;-71
2022/11/18 07:01:23;;;;;;;44.25;26.33;;;7.90;86.40;;;;;;5095093;28;20051;-71
2022/11/18 07:03:50;;;;;;;42.03;26.00;;;7.90;86.40;;;;;;5094577;28;20047;-71
2022/11/18 07:06:25;;;;;;;44.10;25.95;;;7.90;86.40;;;;;;5078357;28;20028;-72
2022/11/18 07:08:51;;;;;;;40.83;24.00;;;7.90;86.50;;;;;;5077024;28;20040;-72
2022/11/18 07:11:19;;;;;;;43.88;25.85;;;7.90;86.50;;;;;;5061733;28;20451;-71
2022/11/18 07:13:46;;;;;;;41.47;26.70;;;7.90;86.50;;;;;;5095149;28;20169;-71
2022/11/18 07:16:15;;;;;;;41.28;24.67;;;7.90;86.50;;;;;;5060913;28;20032;-71
2022/11/18 07:18:46;;;;;;;37.53;24.30;;;7.90;86.50;;;;;;5094674;28;20071;-71
2022/11/18 07:21:17;;;;;;;37.15;23.05;;;7.90;86.50;;;;;;5075391;28;20115;-71
2022/11/18 07:23:43;;;;;;;39.30;23.63;;;7.90;86.50;;;;;;5077437;28;20059;-71
2022/11/18 07:26:09;;;;;;;39.33;23.88;;;7.90;86.40;;;;;;5094222;28;20040;-71
2022/11/18 07:28:35;;;;;;;39.00;24.05;;;7.90;86.40;;;;;;5058005;28;20043;-71
2022/11/18 07:31:02;;;;;;;38.13;24.38;;;7.90;86.50;;;;;;5077559;28;20064;-72
2022/11/18 07:33:28;;;;;;;38.33;23.92;;;7.90;86.50;;;;;;5094229;28;20043;-72
2022/11/18 07:35:54;;;;;;;34.30;21.27;;;7.90;86.50;;;;;;5094680;28;20032;-72
2022/11/18 07:38:19;;;;;;;33.17;21.92;;;7.90;86.50;;;;;;5094318;28;20055;-72
2022/11/18 07:40:45;;;;;;;33.42;21.17;;;7.90;86.50;;;;;;5094237;28;20480;-72
2022/11/18 07:43:10;;;;;;;29.98;19.77;;;7.90;86.50;;;;;;5093539;28;20122;-72
2022/11/18 07:45:36;;;;;;;28.35;20.23;;;7.90;86.40;;;;;;5077620;28;20040;-72
2022/11/18 07:48:02;;;;;;;30.10;19.05;;;7.90;86.40;;;;;;5057336;28;20044;-72
2022/11/18 07:50:28;;;;;;;29.65;18.98;;;7.90;86.40;;;;;;5094426;28;20080;-72
2022/11/18 07:52:57;;;;;;;29.92;19.85;;;7.90;86.40;;;;;;5093632;28;20043;-72
2022/11/18 07:55:23;;;;;;;30.00;19.38;;;7.90;86.80;;;;;;5076992;28;20051;-72
2022/11/18 07:57:49;;;;;;;30.17;19.95;;;7.90;86.40;;;;;;5091752;28;20059;-72
2022/11/18 08:00:15;;;;;;;27.88;19.02;;;7.90;86.40;;;;;;5059125;28;20048;-72
2022/11/18 08:02:42;;;;;;;29.98;18.40;;;7.90;86.40;;;;;;5074500;28;20071;-72
2022/11/18 08:05:09;;;;;;;30.15;18.98;;;7.80;86.30;;;;;;5070021;28;20051;-72
2022/11/18 08:07:34;;;;;;;27.58;17.65;;;7.90;86.40;;;;;;5092745;28;20043;-74
2022/11/18 08:10:02;;;;;;;25.98;17.15;;;7.90;86.40;;;;;;5093857;28;20032;-74
2022/11/18 08:12:29;;;;;;;26.10;17.58;;;7.90;86.30;;;;;;5076721;28;20036;-75
2022/11/18 08:14:55;;;;;;;27.25;18.65;;;7.90;86.30;;;;;;5060238;28;20047;-74
2022/11/18 08:17:21;;;;;;;23.73;17.65;;;7.90;86.30;;;;;;5092429;28;20028;-74
2022/11/18 08:19:47;;;;;;;28.58;18.25;;;7.90;86.20;;;;;;5060149;28;20068;-75
2022/11/18 08:22:13;;;;;;;30.67;16.58;;;7.90;86.70;;;;;;5059999;28;20078;-74
2022/11/18 08:24:38;;;;;;;26.48;18.40;;;7.90;86.70;;;;;;5060080;28;20036;-75
2022/11/18 08:27:04;;;;;;;27.75;17.95;;;7.90;86.20;;;;;;5075625;28;20102;-75
2022/11/18 08:29:30;;;;;;;23.23;16.05;;;7.90;86.20;;;;;;5039759;28;20120;-75
2022/11/18 08:31:55;;;;;;;26.02;17.55;;;7.90;86.20;;;;;;5064356;28;20043;-74
2022/11/18 08:34:21;;;;;;;24.55;16.38;;;7.90;86.50;;;;;;5058829;28;20036;-74
2022/11/18 08:36:47;;;;;;;27.77;17.00;;;7.90;86.00;;;;;;5076743;28;20467;-75
2022/11/18 08:39:13;;;;;;;23.73;16.10;;;7.90;85.90;;;;;;5076230;28;20078;-74
2022/11/18 08:41:41;;;;;;;25.70;16.45;;;8.00;86.00;;;;;;5093217;28;20043;-75
2022/11/18 08:44:11;;;;;;;27.20;17.58;;;7.90;85.90;;;;;;5093156;28;20036;-75
2022/11/18 08:46:36;;;;;;;24.02;15.77;;;7.90;86.00;;;;;;5092686;28;20072;-75
2022/11/18 08:49:02;;;;;;;21.50;14.80;;;8.00;86.00;;;;;;5074416;28;20078;-75
2022/11/18 08:51:28;;;;;;;23.58;16.45;;;7.90;85.90;;;;;;5074239;28;20130;-74
2022/11/18 08:53:54;;;;;;;20.80;14.48;;;8.00;86.00;;;;;;5059503;28;20036;-75
2022/11/18 08:56:22;;;;;;;25.08;16.02;;;7.90;85.90;;;;;;5076114;28;20056;-75
2022/11/18 08:58:48;;;;;;;22.05;15.13;;;8.00;86.00;;;;;;5075532;28;20048;-75
2022/11/18 09:01:14;;;;;;;21.90;14.55;;;8.00;85.80;;;;;;5092776;28;20039;-75
2022/11/18 09:03:40;;;;;;;23.65;14.88;;;8.00;85.80;;;;;;5059337;28;20398;-74
2022/11/18 09:06:10;;;;;;;23.63;14.20;;;8.00;85.80;;;;;;5075189;28;20028;-75
2022/11/18 09:08:36;;;;;;;20.83;14.63;;;8.00;85.90;;;;;;5092622;28;20430;-75
2022/11/18 09:11:14;;;;;;;19.42;13.60;;;8.00;85.70;;;;;;5092458;28;20040;-74
2022/11/18 09:13:40;;;;;;;19.30;13.75;;;8.00;85.80;;;;;;5075332;28;20622;-75
2022/11/18 09:16:06;;;;;;;18.92;13.52;;;8.00;85.70;;;;;;5075603;28;20034;-75
2022/11/18 09:18:32;;;;;;;20.45;13.95;;;8.00;85.60;;;;;;5075411;28;20088;-75
2022/11/18 09:21:04;;;;;;;20.05;14.00;;;8.10;85.60;;;;;;5075541;28;20044;-75
2022/11/18 09:23:34;;;;;;;19.98;13.57;;;8.00;85.50;;;;;;5075365;28;20115;-75
2022/11/18 09:26:04;;;;;;;18.52;12.90;;;8.10;85.50;;;;;;5092184;28;20506;-75
2022/11/18 09:28:30;;;;;;;19.92;13.20;;;8.10;85.50;;;;;;5092277;28;20433;-75
2022/11/18 09:30:56;;;;;;;21.38;13.75;;;8.00;85.30;;;;;;5092290;28;20170;-75
2022/11/18 09:33:22;;;;;;;20.95;14.10;;;8.00;85.40;;;;;;5058115;28;20127;-75
2022/11/18 09:35:48;;;;;;;20.92;13.35;;;8.00;85.30;;;;;;5055711;28;20082;-75
2022/11/18 09:38:14;;;;;;;17.00;12.40;;;8.10;85.40;;;;;;5089959;28;20039;-74
2022/11/18 09:40:56;;;;;;;18.98;12.73;;;8.00;85.30;;;;;;5091997;28;20199;-75
2022/11/18 09:43:42;;;;;;;18.17;13.07;;;8.00;85.30;;;;;;5091496;28;20073;-75
2022/11/18 09:46:30;;;;;;;18.23;12.70;;;8.00;85.30;;;;;;5104780;28;20036;-74
2022/11/18 09:49:11;;;;;;;18.77;11.40;;;8.10;85.20;;;;;;5068545;28;20384;-74
2022/11/18 09:51:40;;;;;;;19.02;11.27;;;8.10;85.20;;;;;;5091515;28;20044;-75
2022/11/18 09:54:19;;;;;;;15.80;11.20;;;8.10;85.20;;;;;;5074645;28;20479;-74
2022/11/18 09:56:45;;;;;;;16.90;11.77;;;8.10;85.10;;;;;;5091285;28;20130;-74
2022/11/18 09:59:14;;;;;;;17.52;11.80;;;8.10;84.90;;;;;;5091737;28;20403;-75
2022/11/18 10:01:40;;;;;;;15.50;11.88;;;8.00;84.80;;;;;;5091488;28;20043;-74
2022/11/18 10:04:19;;;;;;;20.05;12.32;;;8.00;84.70;;;;;;5058362;28;20036;-74
2022/11/18 10:06:46;;;;;;;16.88;12.05;;;8.00;84.80;;;;;;5091972;28;20044;-75
2022/11/18 10:09:32;;;;;;;18.85;12.20;;;8.00;84.70;;;;;;5075068;28;20377;-74
2022/11/18 10:12:29;;;;;;;18.13;12.70;;;8.00;84.70;;;;;;5075770;28;20039;-75
2022/11/18 10:15:20;;;;;;;20.25;12.77;;;8.00;84.60;;;;;;5091643;28;20044;-75
2022/11/18 10:18:03;;;;;;;19.42;13.10;;;8.00;84.60;;;;;;5090899;28;20036;-74
2022/11/18 10:20:47;;;;;;;21.55;13.43;;;8.00;84.70;;;;;;5092053;28;20040;-75
2022/11/18 10:23:39;;;;;;;16.65;12.48;;;8.00;84.60;;;;;;5074940;28;20035;-75
2022/11/18 10:26:05;;;;;;;16.92;12.10;;;8.00;84.60;;;;;;5076765;28;20040;-75
2022/11/18 10:28:31;;;;;;;16.83;11.60;;;8.00;84.60;;;;;;5057900;28;20051;-74
2022/11/18 10:31:04;;;;;;;18.10;11.63;;;7.90;84.90;;;;;;5074987;28;20051;-75
2022/11/18 10:33:30;;;;;;;17.02;12.75;;;8.00;84.70;;;;;;5092024;28;20101;-75
2022/11/18 10:36:15;;;;;;;14.38;11.18;;;7.90;84.50;;;;;;5091646;28;20433;-75
2022/11/18 10:38:42;;;;;;;17.77;11.57;;;8.00;84.80;;;;;;5081827;28;20047;-75
2022/11/18 10:41:15;;;;;;;14.23;10.10;;;7.90;84.70;;;;;;5074801;28;20043;-75
2022/11/18 10:43:52;;;;;;;14.48;9.75;;;8.00;84.70;;;;;;5074697;28;20075;-75
2022/11/18 10:46:28;;;;;;;12.07;9.25;;;7.90;84.60;;;;;;5074785;28;20036;-75
2022/11/18 10:49:20;;;;;;;12.15;9.18;;;7.90;84.60;;;;;;5091605;28;20036;-75
2022/11/18 10:52:05;;;;;;;13.10;9.00;;;8.00;84.40;;;;;;5072766;28;20040;-75
2022/11/18 10:54:31;;;;;;;14.93;9.02;;;7.90;84.50;;;;;;5091714;28;20399;-74
2022/11/18 10:57:20;;;;;;;14.80;9.95;;;7.90;84.50;;;;;;5068352;28;20052;-74
2022/11/18 10:59:50;;;;;;;15.90;9.85;;;8.00;84.60;;;;;;5105225;28;20376;-75
2022/11/18 11:02:33;;;;;;;16.65;10.18;;;8.00;84.60;;;;;;5074407;28;20036;-75
2022/11/18 11:05:15;;;;;;;14.55;10.15;;;7.90;84.50;;;;;;5074763;28;20040;-74
2022/11/18 11:07:41;;;;;;;14.52;10.27;;;8.00;84.60;;;;;;5091027;28;20044;-75
2022/11/18 11:10:18;;;;;;;14.57;10.13;;;8.00;84.50;;;;;;5054564;28;20048;-75
2022/11/18 11:12:58;;;;;;;14.30;10.82;;;8.00;84.60;;;;;;5081917;28;20051;-75
2022/11/18 11:15:44;;;;;;;16.77;11.30;;;8.00;84.60;;;;;;5074457;28;20070;-76
2022/11/18 11:21:08;;;;;;;16.02;11.77;;;8.00;84.60;;;;;;5091217;28;20549;-76
2022/11/18 11:23:33;;;;;;;18.45;12.02;;;8.00;84.60;;;;;;5091346;28;20102;-75
2022/11/18 11:26:17;;;;;;;17.15;12.50;;;8.00;84.40;;;;;;5090583;28;20500;-72
2022/11/18 11:28:52;;;;;;;22.95;12.90;;;8.10;84.40;;;;;;5091311;28;20051;-72
2022/11/18 11:31:38;;;;;;;19.67;12.15;;;8.00;84.20;;;;;;5078270;28;20039;-72
2022/11/18 11:34:27;;;;;;;20.27;12.20;;;7.90;84.30;;;;;;5077911;28;20075;-72
2022/11/18 11:37:21;;;;;;;19.83;12.07;;;7.90;84.40;;;;;;5094633;28;20035;-72
2022/11/18 11:40:19;;;;;;;15.90;11.80;;;7.90;84.50;;;;;;5077986;28;20383;-73
2022/11/18 11:43:19;;;;;;;17.30;11.52;;;7.90;84.50;;;;;;5094662;28;20086;-73
2022/11/18 11:46:04;;;;;;;16.77;12.07;;;7.90;84.30;;;;;;5077751;28;20518;-72
2022/11/18 11:49:11;;;;;;;20.08;12.85;;;7.90;84.40;;;;;;5094518;28;20045;-73
2022/11/18 11:51:51;;;;;;;18.75;12.43;;;7.90;84.20;;;;;;5076880;28;20098;-73
2022/11/18 11:54:32;;;;;;;18.60;12.13;;;7.90;84.30;;;;;;5094395;28;20040;-73
2022/11/18 11:57:14;;;;;;;19.10;12.88;;;7.90;84.30;;;;;;5077357;28;20051;-72
2022/11/18 11:59:55;;;;;;;18.70;12.93;;;7.90;84.30;;;;;;5094459;28;20052;-72
2022/11/18 12:02:48;;;;;;;18.38;13.30;;;7.80;84.10;;;;;;5094456;28;20395;-73
2022/11/18 12:05:41;;;;;;;20.52;13.93;;;7.80;84.10;;;;;;5094540;28;20043;-72
2022/11/18 12:08:24;;;;;;;16.95;13.40;;;7.80;84.10;;;;;;5094079;28;20044;-80
2022/11/18 12:11:02;;;;;;;17.15;13.38;;;7.80;84.10;;;;;;5094508;28;20043;-80
2022/11/18 12:13:56;;;;;;;17.13;12.85;;;7.80;84.00;;;;;;5094719;28;20498;-80
2022/11/18 12:16:41;;;;;;;19.05;13.43;;;7.70;83.90;;;;;;5077593;28;20032;-81
2022/11/18 12:19:11;;;;;;;;;;;7.70;83.90;;;;;;5077959;28;20056;-81
2022/11/18 12:21:46;;;;;;;15.60;11.25;;;7.60;83.60;;;;;;5094323;28;19916;-79
2022/11/18 12:24:35;;;;;;;21.35;12.30;;;7.60;83.90;;;;;;5094228;28;20044;-80
2022/11/18 12:27:26;;;;;;;13.80;10.57;;;7.60;83.90;;;;;;5094106;28;20097;-82
2022/11/18 12:30:00;;;;;;;15.77;11.20;;;7.60;83.90;;;;;;5067367;28;20063;-81
2022/11/18 12:32:45;;;;;;;14.75;10.95;;;7.60;83.90;;;;;;5094381;28;20128;-81
2022/11/18 12:35:11;;;;;;;13.95;9.43;;;7.60;83.70;;;;;;5077566;28;20061;-80
2022/11/18 12:37:49;;;;;;;11.77;9.07;;;7.50;83.60;;;;;;5094036;28;20123;-80
2022/11/18 12:40:37;;;;;;;12.85;8.80;;;7.50;83.60;;;;;;5076801;28;20035;-72
2022/11/18 12:43:49;;;;;;;11.95;8.48;;;7.50;83.70;;;;;;5093623;28;20106;-81
2022/11/18 12:46:33;;;;;;;11.82;8.13;;;7.50;83.70;;;;;;5094057;28;20057;-80
2022/11/18 12:49:21;;;;;;;12.40;8.63;;;7.50;83.60;;;;;;5093780;28;20131;-80
2022/11/18 12:51:48;;;;;;;9.93;7.78;;;7.50;83.40;;;;;;5076733;28;20040;-81
2022/11/18 12:54:46;;;;;;;10.48;7.50;;;7.40;83.40;;;;;;5093472;28;20042;-73
2022/11/18 12:57:28;;;;;;;11.30;8.05;;;7.50;83.60;;;;;;5093143;28;20109;-73
2022/11/18 12:59:54;;;;;;;11.77;8.13;;;7.40;83.60;;;;;;5076330;28;20081;-73
2022/11/18 13:02:29;;;;;;;11.10;7.75;;;7.50;83.60;;;;;;5093262;28;20565;-73
2022/11/18 13:05:32;;;;;;;9.43;7.18;;;7.40;83.40;;;;;;5076114;28;20071;-81
2022/11/18 13:08:11;;;;;;;12.32;7.10;;;7.40;83.20;;;;;;5055118;28;20463;-80
2022/11/18 13:10:44;;;;;;;11.25;7.32;;;7.40;83.20;;;;;;5088924;28;20044;-79
2022/11/18 13:13:32;;;;;;;10.65;7.38;;;7.40;83.10;;;;;;5076356;28;20436;-80
2022/11/18 13:19:01;;;;;;;12.20;7.55;;;7.30;82.80;;;;;;5093202;28;20047;-79
2022/11/18 13:24:22;;;;;;;11.30;7.70;;;7.20;83.10;;;;;;5093089;28;20040;-81